sensor_id;sensor_type;location;lat;lon;timestamp;P1;durP1;ratioP1;P2;durP2;ratioP2
72649;SDS011;61467;50.674;4.618;2022-07-29T00:01:44;4.45;;;1.27;;
72649;SDS011;61467;50.674;4.618;2022-07-29T00:04:11;5.38;;;1.55;;
72649;SDS011;61467;50.674;4.618;2022-07-29T00:06:39;4.40;;;1.15;;
72649;SDS011;61467;50.674;4.618;2022-07-29T00:09:06;5.53;;;1.40;;
72649;SDS011;61467;50.674;4.618;2022-07-29T00:11:33;7.53;;;1.58;;
72649;SDS011;61467;50.674;4.618;2022-07-29T00:13:59;7.00;;;1.10;;
72649;SDS011;61467;50.674;4.618;2022-07-29T00:16:26;6.63;;;1.70;;
72649;SDS011;61467;50.674;4.618;2022-07-29T00:18:54;3.75;;;1.20;;
72649;SDS011;61467;50.674;4.618;2022-07-29T00:21:21;4.70;;;1.23;;
72649;SDS011;61467;50.674;4.618;2022-07-29T00:23:48;6.22;;;1.60;;
72649;SDS011;61467;50.674;4.618;2022-07-29T00:26:15;9.57;;;1.60;;
72649;SDS011;61467;50.674;4.618;2022-07-29T00:28:41;7.07;;;1.30;;
72649;SDS011;61467;50.674;4.618;2022-07-29T00:31:08;5.68;;;1.58;;
72649;SDS011;61467;50.674;4.618;2022-07-29T00:33:35;5.47;;;1.50;;
72649;SDS011;61467;50.674;4.618;2022-07-29T00:36:03;6.82;;;1.70;;
72649;SDS011;61467;50.674;4.618;2022-07-29T00:38:29;5.00;;;1.48;;
72649;SDS011;61467;50.674;4.618;2022-07-29T00:40:56;6.70;;;1.50;;
72649;SDS011;61467;50.674;4.618;2022-07-29T00:43:23;5.50;;;1.58;;
72649;SDS011;61467;50.674;4.618;2022-07-29T00:45:50;5.47;;;1.30;;
72649;SDS011;61467;50.674;4.618;2022-07-29T00:48:16;5.07;;;1.65;;
72649;SDS011;61467;50.674;4.618;2022-07-29T00:50:43;4.40;;;1.50;;
72649;SDS011;61467;50.674;4.618;2022-07-29T00:53:11;4.90;;;1.30;;
72649;SDS011;61467;50.674;4.618;2022-07-29T00:55:38;6.65;;;1.52;;
72649;SDS011;61467;50.674;4.618;2022-07-29T00:58:05;9.03;;;1.67;;
72649;SDS011;61467;50.674;4.618;2022-07-29T01:00:33;6.70;;;1.58;;
72649;SDS011;61467;50.674;4.618;2022-07-29T01:03:00;8.73;;;1.52;;
72649;SDS011;61467;50.674;4.618;2022-07-29T01:05:26;8.60;;;1.35;;
72649;SDS011;61467;50.674;4.618;2022-07-29T01:07:54;5.05;;;1.42;;
72649;SDS011;61467;50.674;4.618;2022-07-29T01:10:24;5.37;;;1.47;;
72649;SDS011;61467;50.674;4.618;2022-07-29T01:12:52;6.25;;;1.85;;
72649;SDS011;61467;50.674;4.618;2022-07-29T01:15:21;5.22;;;1.65;;
72649;SDS011;61467;50.674;4.618;2022-07-29T01:17:50;4.75;;;1.23;;
72649;SDS011;61467;50.674;4.618;2022-07-29T01:20:24;6.07;;;1.50;;
72649;SDS011;61467;50.674;4.618;2022-07-29T01:26:04;6.05;;;1.80;;
72649;SDS011;61467;50.674;4.618;2022-07-29T01:28:54;5.95;;;1.65;;
72649;SDS011;61467;50.674;4.618;2022-07-29T01:31:28;5.47;;;1.63;;
72649;SDS011;61467;50.674;4.618;2022-07-29T01:34:01;9.02;;;1.60;;
72649;SDS011;61467;50.674;4.618;2022-07-29T01:36:31;6.57;;;1.50;;
72649;SDS011;61467;50.674;4.618;2022-07-29T01:39:03;6.22;;;1.75;;
72649;SDS011;61467;50.674;4.618;2022-07-29T01:41:32;5.80;;;1.38;;
72649;SDS011;61467;50.674;4.618;2022-07-29T01:44:06;6.97;;;1.35;;
72649;SDS011;61467;50.674;4.618;2022-07-29T01:46:39;6.28;;;2.05;;
72649;SDS011;61467;50.674;4.618;2022-07-29T01:49:11;6.60;;;1.73;;
72649;SDS011;61467;50.674;4.618;2022-07-29T01:51:41;5.70;;;1.58;;
72649;SDS011;61467;50.674;4.618;2022-07-29T01:54:14;5.05;;;1.23;;
72649;SDS011;61467;50.674;4.618;2022-07-29T01:56:47;6.75;;;2.00;;
72649;SDS011;61467;50.674;4.618;2022-07-29T01:59:18;7.35;;;1.70;;
72649;SDS011;61467;50.674;4.618;2022-07-29T02:01:46;5.90;;;1.40;;
72649;SDS011;61467;50.674;4.618;2022-07-29T02:04:15;6.65;;;1.70;;
72649;SDS011;61467;50.674;4.618;2022-07-29T02:06:45;5.35;;;1.67;;
72649;SDS011;61467;50.674;4.618;2022-07-29T02:09:15;4.90;;;1.35;;
72649;SDS011;61467;50.674;4.618;2022-07-29T02:11:44;4.97;;;1.65;;
72649;SDS011;61467;50.674;4.618;2022-07-29T02:14:15;5.80;;;1.40;;
72649;SDS011;61467;50.674;4.618;2022-07-29T02:16:45;4.93;;;1.50;;
72649;SDS011;61467;50.674;4.618;2022-07-29T02:19:14;6.68;;;1.88;;
72649;SDS011;61467;50.674;4.618;2022-07-29T02:21:44;7.88;;;2.03;;
72649;SDS011;61467;50.674;4.618;2022-07-29T02:24:12;5.55;;;1.70;;
72649;SDS011;61467;50.674;4.618;2022-07-29T02:26:40;4.47;;;1.40;;
72649;SDS011;61467;50.674;4.618;2022-07-29T02:29:09;6.78;;;1.70;;
72649;SDS011;61467;50.674;4.618;2022-07-29T02:31:37;7.38;;;1.60;;
72649;SDS011;61467;50.674;4.618;2022-07-29T02:34:07;6.32;;;1.80;;
72649;SDS011;61467;50.674;4.618;2022-07-29T02:36:36;5.50;;;1.73;;
72649;SDS011;61467;50.674;4.618;2022-07-29T02:39:03;5.87;;;2.20;;
72649;SDS011;61467;50.674;4.618;2022-07-29T02:41:33;9.32;;;1.95;;
72649;SDS011;61467;50.674;4.618;2022-07-29T02:44:08;5.90;;;1.80;;
72649;SDS011;61467;50.674;4.618;2022-07-29T02:46:36;4.20;;;1.50;;
72649;SDS011;61467;50.674;4.618;2022-07-29T02:49:15;5.88;;;1.80;;
72649;SDS011;61467;50.674;4.618;2022-07-29T02:51:49;6.80;;;1.83;;
72649;SDS011;61467;50.674;4.618;2022-07-29T02:54:22;6.22;;;2.28;;
72649;SDS011;61467;50.674;4.618;2022-07-29T02:57:00;5.80;;;1.92;;
72649;SDS011;61467;50.674;4.618;2022-07-29T02:59:30;8.90;;;1.90;;
72649;SDS011;61467;50.674;4.618;2022-07-29T03:02:00;6.50;;;2.30;;
72649;SDS011;61467;50.674;4.618;2022-07-29T03:04:29;5.97;;;1.80;;
72649;SDS011;61467;50.674;4.618;2022-07-29T03:06:58;8.13;;;2.20;;
72649;SDS011;61467;50.674;4.618;2022-07-29T03:09:26;5.00;;;1.60;;
72649;SDS011;61467;50.674;4.618;2022-07-29T03:11:54;7.55;;;2.15;;
72649;SDS011;61467;50.674;4.618;2022-07-29T03:14:21;6.15;;;1.90;;
72649;SDS011;61467;50.674;4.618;2022-07-29T03:16:49;7.03;;;1.73;;
72649;SDS011;61467;50.674;4.618;2022-07-29T03:19:17;7.10;;;1.95;;
72649;SDS011;61467;50.674;4.618;2022-07-29T03:21:45;7.85;;;1.95;;
72649;SDS011;61467;50.674;4.618;2022-07-29T03:24:23;6.57;;;1.80;;
72649;SDS011;61467;50.674;4.618;2022-07-29T03:26:51;6.10;;;1.92;;
72649;SDS011;61467;50.674;4.618;2022-07-29T03:29:18;6.13;;;1.70;;
72649;SDS011;61467;50.674;4.618;2022-07-29T03:31:45;6.25;;;1.92;;
72649;SDS011;61467;50.674;4.618;2022-07-29T03:34:11;4.53;;;1.60;;
72649;SDS011;61467;50.674;4.618;2022-07-29T03:36:38;6.65;;;2.10;;
72649;SDS011;61467;50.674;4.618;2022-07-29T03:39:06;6.78;;;2.17;;
72649;SDS011;61467;50.674;4.618;2022-07-29T03:41:35;7.07;;;2.27;;
72649;SDS011;61467;50.674;4.618;2022-07-29T03:44:06;6.53;;;2.13;;
72649;SDS011;61467;50.674;4.618;2022-07-29T03:46:34;6.38;;;2.20;;
72649;SDS011;61467;50.674;4.618;2022-07-29T03:49:03;5.88;;;2.17;;
72649;SDS011;61467;50.674;4.618;2022-07-29T03:51:33;8.65;;;2.42;;
72649;SDS011;61467;50.674;4.618;2022-07-29T03:54:00;8.73;;;2.77;;
72649;SDS011;61467;50.674;4.618;2022-07-29T03:56:29;6.70;;;1.85;;
72649;SDS011;61467;50.674;4.618;2022-07-29T03:58:58;5.30;;;2.10;;
72649;SDS011;61467;50.674;4.618;2022-07-29T04:01:27;5.80;;;2.20;;
72649;SDS011;61467;50.674;4.618;2022-07-29T04:03:55;6.28;;;2.17;;
72649;SDS011;61467;50.674;4.618;2022-07-29T04:06:22;8.40;;;2.40;;
72649;SDS011;61467;50.674;4.618;2022-07-29T04:08:50;6.18;;;2.05;;
72649;SDS011;61467;50.674;4.618;2022-07-29T04:11:17;9.48;;;2.00;;
72649;SDS011;61467;50.674;4.618;2022-07-29T04:13:45;7.10;;;2.50;;
72649;SDS011;61467;50.674;4.618;2022-07-29T04:16:13;7.03;;;2.40;;
72649;SDS011;61467;50.674;4.618;2022-07-29T04:18:39;6.37;;;2.30;;
72649;SDS011;61467;50.674;4.618;2022-07-29T04:21:06;5.60;;;1.60;;
72649;SDS011;61467;50.674;4.618;2022-07-29T04:23:33;6.05;;;2.30;;
72649;SDS011;61467;50.674;4.618;2022-07-29T04:25:59;6.05;;;1.60;;
72649;SDS011;61467;50.674;4.618;2022-07-29T04:28:26;5.80;;;2.28;;
72649;SDS011;61467;50.674;4.618;2022-07-29T04:30:55;6.33;;;2.33;;
72649;SDS011;61467;50.674;4.618;2022-07-29T04:33:21;6.00;;;1.98;;
72649;SDS011;61467;50.674;4.618;2022-07-29T04:35:48;7.85;;;2.10;;
72649;SDS011;61467;50.674;4.618;2022-07-29T04:38:15;4.82;;;1.70;;
72649;SDS011;61467;50.674;4.618;2022-07-29T04:40:41;5.97;;;2.08;;
72649;SDS011;61467;50.674;4.618;2022-07-29T04:43:08;7.10;;;1.97;;
72649;SDS011;61467;50.674;4.618;2022-07-29T04:45:36;5.28;;;2.25;;
72649;SDS011;61467;50.674;4.618;2022-07-29T04:48:04;6.82;;;2.13;;
72649;SDS011;61467;50.674;4.618;2022-07-29T04:50:31;9.73;;;2.10;;
72649;SDS011;61467;50.674;4.618;2022-07-29T04:52:58;5.93;;;1.73;;
72649;SDS011;61467;50.674;4.618;2022-07-29T04:55:24;6.50;;;1.97;;
72649;SDS011;61467;50.674;4.618;2022-07-29T04:57:51;8.10;;;1.88;;
72649;SDS011;61467;50.674;4.618;2022-07-29T05:00:18;8.27;;;2.40;;
72649;SDS011;61467;50.674;4.618;2022-07-29T05:02:45;7.78;;;2.20;;
72649;SDS011;61467;50.674;4.618;2022-07-29T05:05:13;7.80;;;1.80;;
72649;SDS011;61467;50.674;4.618;2022-07-29T05:07:40;6.00;;;1.70;;
72649;SDS011;61467;50.674;4.618;2022-07-29T05:10:07;7.90;;;2.70;;
72649;SDS011;61467;50.674;4.618;2022-07-29T05:12:34;5.50;;;1.80;;
72649;SDS011;61467;50.674;4.618;2022-07-29T05:15:01;7.07;;;2.13;;
72649;SDS011;61467;50.674;4.618;2022-07-29T05:17:28;7.30;;;2.05;;
72649;SDS011;61467;50.674;4.618;2022-07-29T05:19:56;6.40;;;1.97;;
72649;SDS011;61467;50.674;4.618;2022-07-29T05:22:24;6.18;;;2.22;;
72649;SDS011;61467;50.674;4.618;2022-07-29T05:24:52;6.45;;;2.10;;
72649;SDS011;61467;50.674;4.618;2022-07-29T05:27:18;6.80;;;2.20;;
72649;SDS011;61467;50.674;4.618;2022-07-29T05:29:45;8.30;;;2.33;;
72649;SDS011;61467;50.674;4.618;2022-07-29T05:32:12;9.70;;;2.23;;
72649;SDS011;61467;50.674;4.618;2022-07-29T05:34:39;5.97;;;2.30;;
72649;SDS011;61467;50.674;4.618;2022-07-29T05:37:06;5.93;;;2.20;;
72649;SDS011;61467;50.674;4.618;2022-07-29T05:39:34;8.20;;;2.45;;
72649;SDS011;61467;50.674;4.618;2022-07-29T05:42:01;6.13;;;2.28;;
72649;SDS011;61467;50.674;4.618;2022-07-29T05:44:27;8.03;;;2.57;;
72649;SDS011;61467;50.674;4.618;2022-07-29T05:46:54;9.82;;;2.78;;
72649;SDS011;61467;50.674;4.618;2022-07-29T05:49:21;7.70;;;2.60;;
72649;SDS011;61467;50.674;4.618;2022-07-29T05:51:48;8.57;;;2.45;;
72649;SDS011;61467;50.674;4.618;2022-07-29T05:54:14;7.50;;;2.38;;
72649;SDS011;61467;50.674;4.618;2022-07-29T05:56:42;6.43;;;2.30;;
72649;SDS011;61467;50.674;4.618;2022-07-29T05:59:09;7.30;;;2.58;;
72649;SDS011;61467;50.674;4.618;2022-07-29T06:01:36;6.22;;;2.13;;
72649;SDS011;61467;50.674;4.618;2022-07-29T06:04:04;8.27;;;2.78;;
72649;SDS011;61467;50.674;4.618;2022-07-29T06:06:31;8.20;;;2.75;;
72649;SDS011;61467;50.674;4.618;2022-07-29T06:08:58;7.03;;;2.80;;
72649;SDS011;61467;50.674;4.618;2022-07-29T06:11:24;7.85;;;2.85;;
72649;SDS011;61467;50.674;4.618;2022-07-29T06:13:53;7.78;;;2.83;;
72649;SDS011;61467;50.674;4.618;2022-07-29T06:16:19;8.25;;;3.08;;
72649;SDS011;61467;50.674;4.618;2022-07-29T06:18:46;7.53;;;2.60;;
72649;SDS011;61467;50.674;4.618;2022-07-29T06:21:13;9.27;;;2.90;;
72649;SDS011;61467;50.674;4.618;2022-07-29T06:23:39;7.95;;;3.08;;
72649;SDS011;61467;50.674;4.618;2022-07-29T06:26:06;6.35;;;1.90;;
72649;SDS011;61467;50.674;4.618;2022-07-29T06:28:33;8.82;;;2.55;;
72649;SDS011;61467;50.674;4.618;2022-07-29T06:31:01;9.05;;;2.88;;
72649;SDS011;61467;50.674;4.618;2022-07-29T06:33:28;8.60;;;3.17;;
72649;SDS011;61467;50.674;4.618;2022-07-29T06:35:55;9.02;;;2.80;;
72649;SDS011;61467;50.674;4.618;2022-07-29T06:38:22;6.97;;;2.53;;
72649;SDS011;61467;50.674;4.618;2022-07-29T06:40:48;7.38;;;2.75;;
72649;SDS011;61467;50.674;4.618;2022-07-29T06:43:29;6.28;;;2.40;;
72649;SDS011;61467;50.674;4.618;2022-07-29T06:46:03;8.50;;;3.03;;
72649;SDS011;61467;50.674;4.618;2022-07-29T06:48:35;6.20;;;2.60;;
72649;SDS011;61467;50.674;4.618;2022-07-29T06:51:02;8.18;;;3.08;;
72649;SDS011;61467;50.674;4.618;2022-07-29T06:53:30;7.00;;;2.75;;
72649;SDS011;61467;50.674;4.618;2022-07-29T06:55:57;9.55;;;3.45;;
72649;SDS011;61467;50.674;4.618;2022-07-29T06:58:25;7.50;;;3.13;;
72649;SDS011;61467;50.674;4.618;2022-07-29T07:00:53;8.95;;;3.40;;
72649;SDS011;61467;50.674;4.618;2022-07-29T07:03:23;7.07;;;2.95;;
72649;SDS011;61467;50.674;4.618;2022-07-29T07:05:51;7.18;;;2.85;;
72649;SDS011;61467;50.674;4.618;2022-07-29T07:08:18;6.88;;;2.83;;
72649;SDS011;61467;50.674;4.618;2022-07-29T07:10:45;6.67;;;3.10;;
72649;SDS011;61467;50.674;4.618;2022-07-29T07:13:12;7.25;;;3.35;;
72649;SDS011;61467;50.674;4.618;2022-07-29T07:15:39;9.60;;;3.00;;
72649;SDS011;61467;50.674;4.618;2022-07-29T07:18:06;8.15;;;3.92;;
72649;SDS011;61467;50.674;4.618;2022-07-29T07:20:35;6.88;;;3.00;;
72649;SDS011;61467;50.674;4.618;2022-07-29T07:23:02;7.13;;;2.57;;
72649;SDS011;61467;50.674;4.618;2022-07-29T07:25:29;9.02;;;3.22;;
72649;SDS011;61467;50.674;4.618;2022-07-29T07:27:56;7.90;;;3.10;;
72649;SDS011;61467;50.674;4.618;2022-07-29T07:30:23;9.45;;;3.75;;
72649;SDS011;61467;50.674;4.618;2022-07-29T07:32:50;8.63;;;3.13;;
72649;SDS011;61467;50.674;4.618;2022-07-29T07:35:17;7.47;;;3.33;;
72649;SDS011;61467;50.674;4.618;2022-07-29T07:37:45;7.47;;;2.90;;
72649;SDS011;61467;50.674;4.618;2022-07-29T07:40:12;7.80;;;2.83;;
72649;SDS011;61467;50.674;4.618;2022-07-29T07:42:39;6.32;;;2.40;;
72649;SDS011;61467;50.674;4.618;2022-07-29T07:45:06;6.78;;;2.00;;
72649;SDS011;61467;50.674;4.618;2022-07-29T07:47:34;7.50;;;2.40;;
72649;SDS011;61467;50.674;4.618;2022-07-29T07:50:01;6.72;;;2.78;;
72649;SDS011;61467;50.674;4.618;2022-07-29T07:52:29;7.10;;;2.90;;
72649;SDS011;61467;50.674;4.618;2022-07-29T07:54:57;7.60;;;2.80;;
72649;SDS011;61467;50.674;4.618;2022-07-29T07:57:24;10.30;;;4.90;;
72649;SDS011;61467;50.674;4.618;2022-07-29T07:59:50;6.80;;;3.27;;
72649;SDS011;61467;50.674;4.618;2022-07-29T08:02:17;6.85;;;2.67;;
72649;SDS011;61467;50.674;4.618;2022-07-29T08:04:44;7.10;;;2.55;;
72649;SDS011;61467;50.674;4.618;2022-07-29T08:07:10;5.40;;;2.17;;
72649;SDS011;61467;50.674;4.618;2022-07-29T08:09:39;9.45;;;2.67;;
72649;SDS011;61467;50.674;4.618;2022-07-29T08:12:07;7.13;;;2.40;;
72649;SDS011;61467;50.674;4.618;2022-07-29T08:14:34;7.68;;;2.83;;
72649;SDS011;61467;50.674;4.618;2022-07-29T08:17:00;9.63;;;3.08;;
72649;SDS011;61467;50.674;4.618;2022-07-29T08:19:27;7.53;;;2.70;;
72649;SDS011;61467;50.674;4.618;2022-07-29T08:21:54;7.75;;;2.80;;
72649;SDS011;61467;50.674;4.618;2022-07-29T08:24:21;8.20;;;2.80;;
72649;SDS011;61467;50.674;4.618;2022-07-29T08:27:05;11.25;;;2.53;;
72649;SDS011;61467;50.674;4.618;2022-07-29T08:29:33;7.82;;;2.00;;
72649;SDS011;61467;50.674;4.618;2022-07-29T08:32:00;7.75;;;2.40;;
72649;SDS011;61467;50.674;4.618;2022-07-29T08:34:27;7.68;;;2.35;;
72649;SDS011;61467;50.674;4.618;2022-07-29T08:36:53;6.20;;;2.33;;
72649;SDS011;61467;50.674;4.618;2022-07-29T08:39:20;6.78;;;2.05;;
72649;SDS011;61467;50.674;4.618;2022-07-29T08:41:47;6.13;;;2.40;;
72649;SDS011;61467;50.674;4.618;2022-07-29T08:44:14;6.88;;;2.25;;
72649;SDS011;61467;50.674;4.618;2022-07-29T08:46:43;6.78;;;2.67;;
72649;SDS011;61467;50.674;4.618;2022-07-29T08:49:11;5.47;;;2.30;;
72649;SDS011;61467;50.674;4.618;2022-07-29T08:51:38;6.82;;;1.90;;
72649;SDS011;61467;50.674;4.618;2022-07-29T08:54:07;7.60;;;2.60;;
72649;SDS011;61467;50.674;4.618;2022-07-29T08:56:35;8.10;;;2.33;;
72649;SDS011;61467;50.674;4.618;2022-07-29T08:59:02;6.60;;;2.30;;
72649;SDS011;61467;50.674;4.618;2022-07-29T09:01:32;6.40;;;2.10;;
72649;SDS011;61467;50.674;4.618;2022-07-29T09:04:01;7.70;;;2.17;;
72649;SDS011;61467;50.674;4.618;2022-07-29T09:06:31;5.85;;;1.65;;
72649;SDS011;61467;50.674;4.618;2022-07-29T09:09:00;6.45;;;2.05;;
72649;SDS011;61467;50.674;4.618;2022-07-29T09:11:27;6.45;;;2.42;;
72649;SDS011;61467;50.674;4.618;2022-07-29T09:13:54;5.53;;;2.07;;
72649;SDS011;61467;50.674;4.618;2022-07-29T09:16:21;5.40;;;2.20;;
72649;SDS011;61467;50.674;4.618;2022-07-29T09:18:47;6.28;;;2.00;;
72649;SDS011;61467;50.674;4.618;2022-07-29T09:21:17;6.53;;;1.80;;
72649;SDS011;61467;50.674;4.618;2022-07-29T09:24:03;8.10;;;2.17;;
72649;SDS011;61467;50.674;4.618;2022-07-29T09:26:33;6.17;;;2.00;;
72649;SDS011;61467;50.674;4.618;2022-07-29T09:29:07;6.75;;;1.52;;
72649;SDS011;61467;50.674;4.618;2022-07-29T09:31:36;5.45;;;2.03;;
72649;SDS011;61467;50.674;4.618;2022-07-29T09:34:04;6.13;;;1.77;;
72649;SDS011;61467;50.674;4.618;2022-07-29T09:36:38;5.28;;;1.95;;
72649;SDS011;61467;50.674;4.618;2022-07-29T09:39:06;5.50;;;1.97;;
72649;SDS011;61467;50.674;4.618;2022-07-29T09:41:43;6.22;;;2.17;;
72649;SDS011;61467;50.674;4.618;2022-07-29T09:44:12;6.28;;;1.73;;
72649;SDS011;61467;50.674;4.618;2022-07-29T09:46:40;6.55;;;1.90;;
72649;SDS011;61467;50.674;4.618;2022-07-29T09:49:19;6.22;;;1.88;;
72649;SDS011;61467;50.674;4.618;2022-07-29T09:51:47;5.50;;;2.07;;
72649;SDS011;61467;50.674;4.618;2022-07-29T09:54:22;5.88;;;1.60;;
72649;SDS011;61467;50.674;4.618;2022-07-29T09:56:51;6.45;;;1.40;;
72649;SDS011;61467;50.674;4.618;2022-07-29T09:59:18;6.82;;;1.75;;
72649;SDS011;61467;50.674;4.618;2022-07-29T10:01:47;5.22;;;1.70;;
72649;SDS011;61467;50.674;4.618;2022-07-29T10:04:15;6.83;;;1.40;;
72649;SDS011;61467;50.674;4.618;2022-07-29T10:06:59;5.63;;;1.90;;
72649;SDS011;61467;50.674;4.618;2022-07-29T10:09:27;4.57;;;1.52;;
72649;SDS011;61467;50.674;4.618;2022-07-29T10:12:04;5.05;;;1.67;;
72649;SDS011;61467;50.674;4.618;2022-07-29T10:14:33;7.85;;;1.38;;
72649;SDS011;61467;50.674;4.618;2022-07-29T10:17:00;4.50;;;1.70;;
72649;SDS011;61467;50.674;4.618;2022-07-29T10:19:28;5.10;;;1.90;;
72649;SDS011;61467;50.674;4.618;2022-07-29T10:21:56;7.05;;;1.88;;
72649;SDS011;61467;50.674;4.618;2022-07-29T10:24:25;4.30;;;1.40;;
72649;SDS011;61467;50.674;4.618;2022-07-29T10:26:53;5.85;;;1.88;;
72649;SDS011;61467;50.674;4.618;2022-07-29T10:29:21;6.43;;;1.60;;
72649;SDS011;61467;50.674;4.618;2022-07-29T10:31:49;5.93;;;1.65;;
72649;SDS011;61467;50.674;4.618;2022-07-29T10:34:27;4.95;;;1.67;;
72649;SDS011;61467;50.674;4.618;2022-07-29T10:37:06;5.55;;;1.55;;
72649;SDS011;61467;50.674;4.618;2022-07-29T10:39:42;5.65;;;1.63;;
72649;SDS011;61467;50.674;4.618;2022-07-29T10:42:21;5.57;;;1.50;;
72649;SDS011;61467;50.674;4.618;2022-07-29T10:44:49;4.20;;;1.50;;
72649;SDS011;61467;50.674;4.618;2022-07-29T10:47:21;5.70;;;1.60;;
72649;SDS011;61467;50.674;4.618;2022-07-29T10:49:54;4.60;;;1.45;;
72649;SDS011;61467;50.674;4.618;2022-07-29T10:52:24;5.93;;;1.40;;
72649;SDS011;61467;50.674;4.618;2022-07-29T10:54:53;5.37;;;1.37;;
72649;SDS011;61467;50.674;4.618;2022-07-29T10:57:23;5.47;;;1.40;;
72649;SDS011;61467;50.674;4.618;2022-07-29T11:02:52;5.55;;;1.65;;
72649;SDS011;61467;50.674;4.618;2022-07-29T11:05:23;5.30;;;1.38;;
72649;SDS011;61467;50.674;4.618;2022-07-29T11:10:52;5.95;;;1.35;;
72649;SDS011;61467;50.674;4.618;2022-07-29T11:13:50;5.57;;;1.52;;
72649;SDS011;61467;50.674;4.618;2022-07-29T11:16:19;5.70;;;1.77;;
72649;SDS011;61467;50.674;4.618;2022-07-29T11:21:45;5.33;;;1.80;;
72649;SDS011;61467;50.674;4.618;2022-07-29T11:24:16;6.18;;;1.55;;
72649;SDS011;61467;50.674;4.618;2022-07-29T11:26:46;6.15;;;1.50;;
72649;SDS011;61467;50.674;4.618;2022-07-29T11:29:32;6.22;;;1.55;;
72649;SDS011;61467;50.674;4.618;2022-07-29T11:32:07;5.40;;;1.90;;
72649;SDS011;61467;50.674;4.618;2022-07-29T11:34:35;5.07;;;1.60;;
72649;SDS011;61467;50.674;4.618;2022-07-29T11:37:18;7.68;;;2.05;;
72649;SDS011;61467;50.674;4.618;2022-07-29T11:40:07;5.78;;;1.92;;
72649;SDS011;61467;50.674;4.618;2022-07-29T11:42:39;6.78;;;1.75;;
72649;SDS011;61467;50.674;4.618;2022-07-29T11:45:08;8.02;;;1.80;;
72649;SDS011;61467;50.674;4.618;2022-07-29T11:47:36;5.30;;;1.80;;
72649;SDS011;61467;50.674;4.618;2022-07-29T11:50:04;6.95;;;1.95;;
72649;SDS011;61467;50.674;4.618;2022-07-29T11:52:33;5.00;;;1.90;;
72649;SDS011;61467;50.674;4.618;2022-07-29T11:55:04;4.60;;;1.70;;
72649;SDS011;61467;50.674;4.618;2022-07-29T11:57:33;5.65;;;1.90;;
72649;SDS011;61467;50.674;4.618;2022-07-29T12:00:00;6.97;;;1.97;;
72649;SDS011;61467;50.674;4.618;2022-07-29T12:02:37;5.40;;;1.70;;
72649;SDS011;61467;50.674;4.618;2022-07-29T12:05:07;7.63;;;2.03;;
72649;SDS011;61467;50.674;4.618;2022-07-29T12:07:34;7.10;;;2.05;;
72649;SDS011;61467;50.674;4.618;2022-07-29T12:10:01;8.05;;;2.00;;
72649;SDS011;61467;50.674;4.618;2022-07-29T12:12:31;6.40;;;1.80;;
72649;SDS011;61467;50.674;4.618;2022-07-29T12:14:58;6.80;;;1.92;;
72649;SDS011;61467;50.674;4.618;2022-07-29T12:17:36;6.13;;;1.90;;
72649;SDS011;61467;50.674;4.618;2022-07-29T12:20:04;7.30;;;2.03;;
72649;SDS011;61467;50.674;4.618;2022-07-29T12:22:32;5.18;;;1.95;;
72649;SDS011;61467;50.674;4.618;2022-07-29T12:25:04;5.90;;;1.73;;
72649;SDS011;61467;50.674;4.618;2022-07-29T12:27:32;5.85;;;2.10;;
72649;SDS011;61467;50.674;4.618;2022-07-29T12:29:59;6.50;;;1.70;;
72649;SDS011;61467;50.674;4.618;2022-07-29T12:32:31;6.03;;;1.88;;
72649;SDS011;61467;50.674;4.618;2022-07-29T12:34:58;6.53;;;2.22;;
72649;SDS011;61467;50.674;4.618;2022-07-29T12:37:26;7.60;;;2.00;;
72649;SDS011;61467;50.674;4.618;2022-07-29T12:39:53;5.70;;;2.10;;
72649;SDS011;61467;50.674;4.618;2022-07-29T12:42:21;6.32;;;1.90;;
72649;SDS011;61467;50.674;4.618;2022-07-29T12:44:49;6.05;;;1.90;;
72649;SDS011;61467;50.674;4.618;2022-07-29T12:47:16;5.43;;;1.90;;
72649;SDS011;61467;50.674;4.618;2022-07-29T12:49:44;9.23;;;2.17;;
72649;SDS011;61467;50.674;4.618;2022-07-29T12:52:25;7.15;;;2.25;;
72649;SDS011;61467;50.674;4.618;2022-07-29T12:54:55;5.68;;;1.80;;
72649;SDS011;61467;50.674;4.618;2022-07-29T12:57:28;6.00;;;2.10;;
72649;SDS011;61467;50.674;4.618;2022-07-29T13:00:06;5.93;;;1.90;;
72649;SDS011;61467;50.674;4.618;2022-07-29T13:08:22;8.70;;;2.08;;
72649;SDS011;61467;50.674;4.618;2022-07-29T13:10:49;9.82;;;2.35;;
72649;SDS011;61467;50.674;4.618;2022-07-29T13:13:17;5.95;;;2.20;;
72649;SDS011;61467;50.674;4.618;2022-07-29T13:15:44;8.17;;;1.87;;
72649;SDS011;61467;50.674;4.618;2022-07-29T13:18:28;6.80;;;1.92;;
72649;SDS011;61467;50.674;4.618;2022-07-29T13:20:55;7.78;;;1.80;;
72649;SDS011;61467;50.674;4.618;2022-07-29T13:23:22;6.10;;;1.75;;
72649;SDS011;61467;50.674;4.618;2022-07-29T13:25:49;7.72;;;2.10;;
72649;SDS011;61467;50.674;4.618;2022-07-29T13:28:17;4.93;;;1.63;;
72649;SDS011;61467;50.674;4.618;2022-07-29T13:30:46;6.95;;;1.60;;
72649;SDS011;61467;50.674;4.618;2022-07-29T13:33:14;8.00;;;1.80;;
72649;SDS011;61467;50.674;4.618;2022-07-29T13:49:09;6.05;;;2.58;;
72649;SDS011;61467;50.674;4.618;2022-07-29T13:51:36;8.07;;;2.00;;
72649;SDS011;61467;50.674;4.618;2022-07-29T13:54:03;9.40;;;2.33;;
72649;SDS011;61467;50.674;4.618;2022-07-29T14:20:34;9.73;;;2.58;;
72649;SDS011;61467;50.674;4.618;2022-07-29T14:23:01;7.18;;;2.85;;
72649;SDS011;61467;50.674;4.618;2022-07-29T14:25:27;6.30;;;2.33;;
72649;SDS011;61467;50.674;4.618;2022-07-29T14:27:54;8.33;;;2.30;;
72649;SDS011;61467;50.674;4.618;2022-07-29T14:33:45;6.53;;;2.60;;
72649;SDS011;61467;50.674;4.618;2022-07-29T14:36:14;6.88;;;2.65;;
72649;SDS011;61467;50.674;4.618;2022-07-29T14:38:40;7.07;;;2.22;;
72649;SDS011;61467;50.674;4.618;2022-07-29T14:41:07;7.07;;;2.80;;
72649;SDS011;61467;50.674;4.618;2022-07-29T14:43:34;8.32;;;2.28;;
72649;SDS011;61467;50.674;4.618;2022-07-29T14:46:01;7.43;;;2.40;;
72649;SDS011;61467;50.674;4.618;2022-07-29T14:48:28;6.10;;;2.20;;
72649;SDS011;61467;50.674;4.618;2022-07-29T14:50:54;6.60;;;2.30;;
72649;SDS011;61467;50.674;4.618;2022-07-29T14:53:23;6.40;;;2.40;;
72649;SDS011;61467;50.674;4.618;2022-07-29T14:55:49;9.23;;;2.72;;
72649;SDS011;61467;50.674;4.618;2022-07-29T14:58:16;9.32;;;2.75;;
72649;SDS011;61467;50.674;4.618;2022-07-29T15:00:44;8.88;;;2.33;;
72649;SDS011;61467;50.674;4.618;2022-07-29T15:03:11;7.30;;;2.35;;
72649;SDS011;61467;50.674;4.618;2022-07-29T15:05:38;9.43;;;2.30;;
72649;SDS011;61467;50.674;4.618;2022-07-29T15:08:04;6.85;;;2.17;;
72649;SDS011;61467;50.674;4.618;2022-07-29T15:10:34;7.45;;;2.10;;
72649;SDS011;61467;50.674;4.618;2022-07-29T15:13:01;6.60;;;2.28;;
72649;SDS011;61467;50.674;4.618;2022-07-29T15:15:27;5.18;;;2.00;;
72649;SDS011;61467;50.674;4.618;2022-07-29T15:17:54;7.37;;;2.30;;
72649;SDS011;61467;50.674;4.618;2022-07-29T15:20:21;6.35;;;1.92;;
72649;SDS011;61467;50.674;4.618;2022-07-29T15:22:50;7.20;;;2.00;;
72649;SDS011;61467;50.674;4.618;2022-07-29T15:25:17;7.15;;;2.22;;
72649;SDS011;61467;50.674;4.618;2022-07-29T15:27:45;6.22;;;2.20;;
72649;SDS011;61467;50.674;4.618;2022-07-29T15:30:12;7.17;;;2.00;;
72649;SDS011;61467;50.674;4.618;2022-07-29T15:32:40;6.25;;;1.90;;
72649;SDS011;61467;50.674;4.618;2022-07-29T15:35:06;8.80;;;2.28;;
72649;SDS011;61467;50.674;4.618;2022-07-29T15:37:35;6.03;;;1.63;;
72649;SDS011;61467;50.674;4.618;2022-07-29T15:40:02;6.80;;;1.90;;
72649;SDS011;61467;50.674;4.618;2022-07-29T15:42:29;5.83;;;1.90;;
72649;SDS011;61467;50.674;4.618;2022-07-29T15:44:57;5.63;;;1.80;;
72649;SDS011;61467;50.674;4.618;2022-07-29T15:47:27;6.63;;;1.92;;
72649;SDS011;61467;50.674;4.618;2022-07-29T15:49:54;5.30;;;1.65;;
72649;SDS011;61467;50.674;4.618;2022-07-29T15:52:21;6.15;;;1.58;;
72649;SDS011;61467;50.674;4.618;2022-07-29T15:54:48;6.80;;;1.93;;
72649;SDS011;61467;50.674;4.618;2022-07-29T15:57:15;6.60;;;1.90;;